sensor_id;sensor_type;location;lat;lon;timestamp;pressure;altitude;pressure_sealevel;temperature;humidity
78198;BME280;67472;51.554;7.812;2023-02-02T00:02:39;101160.09;;;5.19;100.00
78198;BME280;67472;51.554;7.812;2023-02-02T00:05:24;101164.75;;;5.30;100.00
78198;BME280;67472;51.554;7.812;2023-02-02T00:08:09;101161.16;;;5.15;100.00
78198;BME280;67472;51.554;7.812;2023-02-02T00:10:54;101160.16;;;5.18;100.00
78198;BME280;67472;51.554;7.812;2023-02-02T00:13:39;101156.97;;;5.28;100.00
78198;BME280;67472;51.554;7.812;2023-02-02T00:19:18;101166.50;;;5.29;100.00
78198;BME280;67472;51.554;7.812;2023-02-02T00:22:03;101156.88;;;5.30;100.00
78198;BME280;67472;51.554;7.812;2023-02-02T00:24:47;101165.34;;;5.35;100.00
78198;BME280;67472;51.554;7.812;2023-02-02T00:27:32;101161.22;;;5.31;100.00
78198;BME280;67472;51.554;7.812;2023-02-02T00:30:16;101161.81;;;5.36;100.00
78198;BME280;67472;51.554;7.812;2023-02-02T00:33:01;101165.88;;;5.41;100.00
78198;BME280;67472;51.554;7.812;2023-02-02T00:35:45;101162.03;;;5.31;100.00
78198;BME280;67472;51.554;7.812;2023-02-02T00:38:30;101161.09;;;5.32;100.00
78198;BME280;67472;51.554;7.812;2023-02-02T00:41:16;101172.38;;;5.50;100.00
78198;BME280;67472;51.554;7.812;2023-02-02T00:44:00;101168.91;;;5.34;100.00
78198;BME280;67472;51.554;7.812;2023-02-02T00:47:03;101164.47;;;5.34;100.00
78198;BME280;67472;51.554;7.812;2023-02-02T00:49:47;101169.97;;;5.30;100.00
78198;BME280;67472;51.554;7.812;2023-02-02T00:52:32;101172.34;;;5.34;100.00
78198;BME280;67472;51.554;7.812;2023-02-02T00:55:16;101173.44;;;5.30;100.00
78198;BME280;67472;51.554;7.812;2023-02-02T00:58:01;101171.00;;;5.27;100.00
78198;BME280;67472;51.554;7.812;2023-02-02T01:00:46;101185.47;;;5.17;100.00
78198;BME280;67472;51.554;7.812;2023-02-02T01:03:30;101189.66;;;5.21;100.00
78198;BME280;67472;51.554;7.812;2023-02-02T01:06:16;101198.34;;;5.22;100.00
78198;BME280;67472;51.554;7.812;2023-02-02T01:09:00;101202.16;;;5.32;100.00
78198;BME280;67472;51.554;7.812;2023-02-02T01:11:45;101204.03;;;5.30;100.00
78198;BME280;67472;51.554;7.812;2023-02-02T01:14:29;101203.59;;;5.22;100.00
78198;BME280;67472;51.554;7.812;2023-02-02T01:17:14;101210.59;;;5.21;100.00
78198;BME280;67472;51.554;7.812;2023-02-02T01:19:58;101219.38;;;5.20;100.00
78198;BME280;67472;51.554;7.812;2023-02-02T01:22:44;101228.16;;;5.19;100.00
78198;BME280;67472;51.554;7.812;2023-02-02T01:25:28;101234.31;;;5.18;100.00
78198;BME280;67472;51.554;7.812;2023-02-02T01:28:15;101229.09;;;5.18;100.00
78198;BME280;67472;51.554;7.812;2023-02-02T01:31:08;101241.25;;;5.19;100.00
78198;BME280;67472;51.554;7.812;2023-02-02T01:33:52;101250.88;;;5.19;100.00
78198;BME280;67472;51.554;7.812;2023-02-02T01:36:37;101254.34;;;5.19;100.00
78198;BME280;67472;51.554;7.812;2023-02-02T01:39:21;101252.41;;;5.23;100.00
78198;BME280;67472;51.554;7.812;2023-02-02T01:42:19;101263.81;;;5.22;100.00
78198;BME280;67472;51.554;7.812;2023-02-02T01:45:16;101267.44;;;5.19;100.00
78198;BME280;67472;51.554;7.812;2023-02-02T01:48:01;101270.88;;;5.20;100.00
78198;BME280;67472;51.554;7.812;2023-02-02T01:50:48;101278.75;;;5.20;100.00
78198;BME280;67472;51.554;7.812;2023-02-02T01:53:33;101291.84;;;5.20;100.00
78198;BME280;67472;51.554;7.812;2023-02-02T01:56:24;101299.78;;;5.18;100.00
78198;BME280;67472;51.554;7.812;2023-02-02T01:59:10;101297.06;;;5.20;100.00
78198;BME280;67472;51.554;7.812;2023-02-02T02:01:56;101305.56;;;5.25;100.00
78198;BME280;67472;51.554;7.812;2023-02-02T02:04:41;101312.72;;;5.21;100.00
78198;BME280;67472;51.554;7.812;2023-02-02T02:07:27;101310.34;;;5.17;100.00
78198;BME280;67472;51.554;7.812;2023-02-02T02:10:11;101322.94;;;5.26;100.00
78198;BME280;67472;51.554;7.812;2023-02-02T02:12:56;101311.31;;;5.31;100.00
78198;BME280;67472;51.554;7.812;2023-02-02T02:15:56;101311.72;;;5.24;100.00
78198;BME280;67472;51.554;7.812;2023-02-02T02:22:18;101317.88;;;5.23;100.00
78198;BME280;67472;51.554;7.812;2023-02-02T02:41:02;101328.88;;;5.46;100.00
78198;BME280;67472;51.554;7.812;2023-02-02T02:43:54;101324.44;;;5.48;100.00
78198;BME280;67472;51.554;7.812;2023-02-02T02:46:41;101326.25;;;5.46;100.00
78198;BME280;67472;51.554;7.812;2023-02-02T02:49:27;101321.81;;;5.48;100.00
78198;BME280;67472;51.554;7.812;2023-02-02T02:52:11;101328.56;;;5.52;100.00
78198;BME280;67472;51.554;7.812;2023-02-02T02:54:58;101323.25;;;5.54;100.00
78198;BME280;67472;51.554;7.812;2023-02-02T02:58:11;101329.16;;;5.57;100.00
78198;BME280;67472;51.554;7.812;2023-02-02T03:01:12;101329.97;;;5.59;100.00
78198;BME280;67472;51.554;7.812;2023-02-02T03:04:11;101339.03;;;5.69;100.00
78198;BME280;67472;51.554;7.812;2023-02-02T03:07:03;101351.81;;;5.76;100.00
78198;BME280;67472;51.554;7.812;2023-02-02T03:09:51;101348.34;;;5.75;100.00
78198;BME280;67472;51.554;7.812;2023-02-02T03:12:56;101354.84;;;5.85;100.00
78198;BME280;67472;51.554;7.812;2023-02-02T03:15:44;101363.84;;;5.80;100.00
78198;BME280;67472;51.554;7.812;2023-02-02T03:18:30;101364.44;;;5.85;100.00
78198;BME280;67472;51.554;7.812;2023-02-02T03:21:15;101357.59;;;5.82;100.00
78198;BME280;67472;51.554;7.812;2023-02-02T03:24:00;101361.81;;;5.85;100.00
78198;BME280;67472;51.554;7.812;2023-02-02T03:26:45;101357.50;;;5.84;100.00
78198;BME280;67472;51.554;7.812;2023-02-02T03:29:29;101352.34;;;5.82;100.00
78198;BME280;67472;51.554;7.812;2023-02-02T03:32:14;101366.38;;;5.81;100.00
78198;BME280;67472;51.554;7.812;2023-02-02T03:34:58;101354.88;;;5.84;100.00
78198;BME280;67472;51.554;7.812;2023-02-02T03:37:42;101359.97;;;5.87;100.00
78198;BME280;67472;51.554;7.812;2023-02-02T03:40:27;101380.97;;;5.87;100.00
78198;BME280;67472;51.554;7.812;2023-02-02T03:43:12;101376.00;;;5.81;100.00
78198;BME280;67472;51.554;7.812;2023-02-02T03:45:58;101376.78;;;5.83;100.00
78198;BME280;67472;51.554;7.812;2023-02-02T03:48:43;101381.09;;;5.84;100.00
78198;BME280;67472;51.554;7.812;2023-02-02T03:51:27;101383.09;;;5.79;100.00
78198;BME280;67472;51.554;7.812;2023-02-02T03:54:13;101394.44;;;5.79;100.00
78198;BME280;67472;51.554;7.812;2023-02-02T03:56:57;101399.84;;;5.76;100.00
78198;BME280;67472;51.554;7.812;2023-02-02T03:59:42;101401.53;;;5.77;100.00
78198;BME280;67472;51.554;7.812;2023-02-02T04:02:26;101400.28;;;5.84;100.00
78198;BME280;67472;51.554;7.812;2023-02-02T04:05:10;101412.50;;;5.85;100.00
78198;BME280;67472;51.554;7.812;2023-02-02T04:07:55;101414.25;;;5.85;100.00
78198;BME280;67472;51.554;7.812;2023-02-02T04:10:41;101409.72;;;5.88;100.00
78198;BME280;67472;51.554;7.812;2023-02-02T04:13:25;101410.94;;;5.81;100.00
78198;BME280;67472;51.554;7.812;2023-02-02T04:16:11;101427.59;;;5.80;100.00
78198;BME280;67472;51.554;7.812;2023-02-02T04:18:55;101435.38;;;5.82;100.00
78198;BME280;67472;51.554;7.812;2023-02-02T04:21:40;101427.66;;;5.79;100.00
78198;BME280;67472;51.554;7.812;2023-02-02T04:24:24;101427.81;;;5.76;100.00
78198;BME280;67472;51.554;7.812;2023-02-02T04:27:09;101435.63;;;5.77;100.00
78198;BME280;67472;51.554;7.812;2023-02-02T04:29:53;101428.50;;;5.79;100.00
78198;BME280;67472;51.554;7.812;2023-02-02T04:32:38;101432.31;;;5.74;100.00
78198;BME280;67472;51.554;7.812;2023-02-02T04:35:22;101434.91;;;5.74;100.00
78198;BME280;67472;51.554;7.812;2023-02-02T04:38:07;101436.78;;;5.72;100.00
78198;BME280;67472;51.554;7.812;2023-02-02T04:40:51;101433.06;;;5.76;100.00
78198;BME280;67472;51.554;7.812;2023-02-02T04:43:36;101436.44;;;5.78;100.00
78198;BME280;67472;51.554;7.812;2023-02-02T04:46:22;101436.63;;;5.75;100.00
78198;BME280;67472;51.554;7.812;2023-02-02T04:49:08;101442.31;;;5.65;100.00
78198;BME280;67472;51.554;7.812;2023-02-02T04:51:53;101441.47;;;5.65;100.00
78198;BME280;67472;51.554;7.812;2023-02-02T04:54:38;101443.47;;;5.60;100.00
78198;BME280;67472;51.554;7.812;2023-02-02T04:57:22;101446.00;;;5.61;100.00
78198;BME280;67472;51.554;7.812;2023-02-02T05:00:07;101445.41;;;5.56;100.00
78198;BME280;67472;51.554;7.812;2023-02-02T05:02:54;101444.56;;;5.56;100.00
78198;BME280;67472;51.554;7.812;2023-02-02T05:05:38;101447.22;;;5.54;100.00
78198;BME280;67472;51.554;7.812;2023-02-02T05:08:23;101454.31;;;5.52;100.00
78198;BME280;67472;51.554;7.812;2023-02-02T05:11:09;101455.94;;;5.55;100.00
78198;BME280;67472;51.554;7.812;2023-02-02T05:13:54;101462.44;;;5.48;100.00
78198;BME280;67472;51.554;7.812;2023-02-02T05:16:38;101461.88;;;5.41;100.00
78198;BME280;67472;51.554;7.812;2023-02-02T05:19:26;101467.19;;;5.40;100.00
78198;BME280;67472;51.554;7.812;2023-02-02T05:22:17;101467.53;;;5.51;100.00
78198;BME280;67472;51.554;7.812;2023-02-02T05:25:01;101480.47;;;5.54;100.00
78198;BME280;67472;51.554;7.812;2023-02-02T05:27:46;101476.53;;;5.45;100.00
78198;BME280;67472;51.554;7.812;2023-02-02T05:30:30;101468.81;;;5.42;100.00
78198;BME280;67472;51.554;7.812;2023-02-02T05:33:15;101480.34;;;5.38;100.00
78198;BME280;67472;51.554;7.812;2023-02-02T05:36:03;101475.81;;;5.42;100.00
78198;BME280;67472;51.554;7.812;2023-02-02T05:38:47;101480.22;;;5.41;100.00
78198;BME280;67472;51.554;7.812;2023-02-02T05:41:32;101490.09;;;5.53;100.00
78198;BME280;67472;51.554;7.812;2023-02-02T05:44:16;101495.41;;;5.52;100.00
78198;BME280;67472;51.554;7.812;2023-02-02T05:47:00;101491.63;;;5.57;100.00
78198;BME280;67472;51.554;7.812;2023-02-02T05:49:45;101505.22;;;5.65;100.00
78198;BME280;67472;51.554;7.812;2023-02-02T05:52:30;101507.00;;;5.65;100.00
78198;BME280;67472;51.554;7.812;2023-02-02T05:55:16;101513.47;;;5.75;100.00
78198;BME280;67472;51.554;7.812;2023-02-02T05:58:03;101523.94;;;5.75;100.00
78198;BME280;67472;51.554;7.812;2023-02-02T06:00:47;101517.53;;;5.81;100.00
78198;BME280;67472;51.554;7.812;2023-02-02T06:03:31;101529.22;;;5.92;100.00
78198;BME280;67472;51.554;7.812;2023-02-02T06:06:16;101545.97;;;5.90;100.00
78198;BME280;67472;51.554;7.812;2023-02-02T06:09:01;101536.28;;;5.92;100.00
78198;BME280;67472;51.554;7.812;2023-02-02T06:11:45;101535.97;;;5.98;100.00
78198;BME280;67472;51.554;7.812;2023-02-02T06:14:30;101549.84;;;6.00;100.00
78198;BME280;67472;51.554;7.812;2023-02-02T06:17:14;101558.78;;;6.13;100.00
78198;BME280;67472;51.554;7.812;2023-02-02T06:19:59;101571.28;;;6.08;100.00
78198;BME280;67472;51.554;7.812;2023-02-02T06:22:44;101566.44;;;6.17;100.00
78198;BME280;67472;51.554;7.812;2023-02-02T06:25:28;101575.63;;;6.09;100.00
78198;BME280;67472;51.554;7.812;2023-02-02T06:28:13;101568.66;;;6.08;100.00
78198;BME280;67472;51.554;7.812;2023-02-02T06:31:05;101575.38;;;6.13;100.00
78198;BME280;67472;51.554;7.812;2023-02-02T06:33:57;101580.25;;;6.21;100.00
78198;BME280;67472;51.554;7.812;2023-02-02T06:36:41;101578.69;;;6.17;100.00
78198;BME280;67472;51.554;7.812;2023-02-02T06:39:26;101580.25;;;6.21;100.00
78198;BME280;67472;51.554;7.812;2023-02-02T06:42:10;101591.66;;;6.20;100.00
78198;BME280;67472;51.554;7.812;2023-02-02T06:44:55;101588.66;;;6.28;100.00
78198;BME280;67472;51.554;7.812;2023-02-02T06:47:39;101604.31;;;6.29;100.00
78198;BME280;67472;51.554;7.812;2023-02-02T06:50:24;101602.56;;;6.30;100.00
78198;BME280;67472;51.554;7.812;2023-02-02T06:53:14;101611.03;;;6.35;100.00
78198;BME280;67472;51.554;7.812;2023-02-02T06:56:06;101610.44;;;6.30;100.00
78198;BME280;67472;51.554;7.812;2023-02-02T06:58:52;101618.91;;;6.35;100.00
78198;BME280;67472;51.554;7.812;2023-02-02T07:01:36;101605.47;;;6.41;100.00
78198;BME280;67472;51.554;7.812;2023-02-02T07:04:21;101613.25;;;6.25;100.00
78198;BME280;67472;51.554;7.812;2023-02-02T07:07:05;101608.09;;;6.23;100.00
78198;BME280;67472;51.554;7.812;2023-02-02T07:09:49;101613.81;;;6.32;100.00
78198;BME280;67472;51.554;7.812;2023-02-02T07:12:34;101615.72;;;6.28;100.00
78198;BME280;67472;51.554;7.812;2023-02-02T07:15:18;101618.81;;;6.36;100.00
78198;BME280;67472;51.554;7.812;2023-02-02T07:18:03;101625.00;;;6.35;100.00
78198;BME280;67472;51.554;7.812;2023-02-02T07:20:47;101632.72;;;6.38;100.00
78198;BME280;67472;51.554;7.812;2023-02-02T07:23:32;101635.41;;;6.37;100.00
78198;BME280;67472;51.554;7.812;2023-02-02T07:26:18;101642.06;;;6.44;100.00
78198;BME280;67472;51.554;7.812;2023-02-02T07:29:03;101638.13;;;6.35;100.00
78198;BME280;67472;51.554;7.812;2023-02-02T07:31:48;101642.28;;;6.39;100.00
78198;BME280;67472;51.554;7.812;2023-02-02T07:34:37;101629.84;;;6.43;100.00
78198;BME280;67472;51.554;7.812;2023-02-02T07:37:21;101631.72;;;6.41;100.00
78198;BME280;67472;51.554;7.812;2023-02-02T07:40:06;101645.59;;;6.43;100.00
78198;BME280;67472;51.554;7.812;2023-02-02T07:42:51;101640.34;;;6.43;100.00
78198;BME280;67472;51.554;7.812;2023-02-02T07:45:36;101639.66;;;6.39;100.00
78198;BME280;67472;51.554;7.812;2023-02-02T07:48:20;101635.25;;;6.40;100.00
78198;BME280;67472;51.554;7.812;2023-02-02T07:51:07;101642.22;;;6.41;100.00
78198;BME280;67472;51.554;7.812;2023-02-02T07:53:53;101648.38;;;6.40;100.00
78198;BME280;67472;51.554;7.812;2023-02-02T07:56:38;101650.16;;;6.39;100.00
78198;BME280;67472;51.554;7.812;2023-02-02T07:59:22;101652.72;;;6.41;100.00
78198;BME280;67472;51.554;7.812;2023-02-02T08:02:08;101656.84;;;6.45;100.00
78198;BME280;67472;51.554;7.812;2023-02-02T08:04:53;101658.56;;;6.46;100.00
78198;BME280;67472;51.554;7.812;2023-02-02T08:07:37;101658.09;;;6.38;100.00
78198;BME280;67472;51.554;7.812;2023-02-02T08:10:22;101662.97;;;6.45;100.00
78198;BME280;67472;51.554;7.812;2023-02-02T08:13:06;101670.78;;;6.47;100.00
78198;BME280;67472;51.554;7.812;2023-02-02T08:15:51;101672.75;;;6.42;100.00
78198;BME280;67472;51.554;7.812;2023-02-02T08:18:36;101675.78;;;6.51;100.00
78198;BME280;67472;51.554;7.812;2023-02-02T08:21:21;101672.41;;;6.49;100.00
78198;BME280;67472;51.554;7.812;2023-02-02T08:24:06;101677.19;;;6.58;100.00
78198;BME280;67472;51.554;7.812;2023-02-02T08:26:50;101679.97;;;6.55;100.00
78198;BME280;67472;51.554;7.812;2023-02-02T08:29:38;101680.81;;;6.56;100.00
78198;BME280;67472;51.554;7.812;2023-02-02T08:32:22;101691.69;;;6.48;100.00
78198;BME280;67472;51.554;7.812;2023-02-02T08:35:07;101691.31;;;6.56;100.00
78198;BME280;67472;51.554;7.812;2023-02-02T08:37:52;101696.31;;;6.60;100.00
78198;BME280;67472;51.554;7.812;2023-02-02T08:40:36;101695.47;;;6.60;100.00
78198;BME280;67472;51.554;7.812;2023-02-02T08:43:21;101702.28;;;6.64;100.00
78198;BME280;67472;51.554;7.812;2023-02-02T08:46:06;101704.50;;;6.71;100.00
78198;BME280;67472;51.554;7.812;2023-02-02T08:48:51;101710.63;;;6.72;100.00
78198;BME280;67472;51.554;7.812;2023-02-02T08:51:36;101709.59;;;6.74;100.00
78198;BME280;67472;51.554;7.812;2023-02-02T08:54:21;101707.75;;;6.76;100.00
78198;BME280;67472;51.554;7.812;2023-02-02T08:57:05;101704.19;;;6.77;100.00
78198;BME280;67472;51.554;7.812;2023-02-02T08:59:50;101698.03;;;6.78;100.00
78198;BME280;67472;51.554;7.812;2023-02-02T09:02:34;101701.31;;;6.82;100.00
78198;BME280;67472;51.554;7.812;2023-02-02T09:05:18;101701.50;;;6.96;100.00
78198;BME280;67472;51.554;7.812;2023-02-02T09:08:03;101706.22;;;6.90;100.00
78198;BME280;67472;51.554;7.812;2023-02-02T09:10:48;101701.03;;;6.88;100.00
78198;BME280;67472;51.554;7.812;2023-02-02T09:13:33;101702.72;;;6.89;100.00
78198;BME280;67472;51.554;7.812;2023-02-02T09:16:20;101714.94;;;6.90;100.00
78198;BME280;67472;51.554;7.812;2023-02-02T09:19:05;101704.34;;;6.92;100.00
78198;BME280;67472;51.554;7.812;2023-02-02T09:21:50;101703.97;;;6.99;100.00
78198;BME280;67472;51.554;7.812;2023-02-02T09:24:34;101709.84;;;6.87;100.00
78198;BME280;67472;51.554;7.812;2023-02-02T09:27:18;101714.09;;;6.90;100.00
78198;BME280;67472;51.554;7.812;2023-02-02T09:30:03;101711.63;;;6.87;100.00
78198;BME280;67472;51.554;7.812;2023-02-02T09:32:48;101709.00;;;6.87;100.00
78198;BME280;67472;51.554;7.812;2023-02-02T09:35:33;101716.88;;;6.87;100.00
78198;BME280;67472;51.554;7.812;2023-02-02T09:38:18;101720.25;;;6.89;100.00
78198;BME280;67472;51.554;7.812;2023-02-02T09:55:49;101729.28;;;7.00;100.00
78198;BME280;67472;51.554;7.812;2023-02-02T09:58:55;101731.91;;;7.00;100.00
78198;BME280;67472;51.554;7.812;2023-02-02T10:01:41;101735.50;;;6.99;100.00
78198;BME280;67472;51.554;7.812;2023-02-02T10:04:35;101718.88;;;6.99;100.00
78198;BME280;67472;51.554;7.812;2023-02-02T10:07:28;101749.28;;;7.03;100.00
78198;BME280;67472;51.554;7.812;2023-02-02T10:13:16;101742.13;;;7.06;100.00
78198;BME280;67472;51.554;7.812;2023-02-02T10:16:09;101738.78;;;7.03;100.00
78198;BME280;67472;51.554;7.812;2023-02-02T10:19:05;101753.94;;;6.98;100.00
78198;BME280;67472;51.554;7.812;2023-02-02T10:22:12;101765.06;;;7.03;100.00
78198;BME280;67472;51.554;7.812;2023-02-02T10:24:59;101768.00;;;7.14;100.00
78198;BME280;67472;51.554;7.812;2023-02-02T10:28:10;101770.66;;;6.44;100.00
78198;BME280;67472;51.554;7.812;2023-02-02T10:31:00;101753.03;;;5.91;100.00
78198;BME280;67472;51.554;7.812;2023-02-02T10:33:54;101750.03;;;5.80;100.00
78198;BME280;67472;51.554;7.812;2023-02-02T10:49:31;101767.59;;;5.78;100.00
78198;BME280;67472;51.554;7.812;2023-02-02T10:52:21;101764.81;;;5.62;100.00
78198;BME280;67472;51.554;7.812;2023-02-02T11:00:58;101751.50;;;5.28;100.00
78198;BME280;67472;51.554;7.812;2023-02-02T11:03:45;101768.78;;;5.32;100.00
78198;BME280;67472;51.554;7.812;2023-02-02T11:06:30;101757.31;;;5.35;100.00
78198;BME280;67472;51.554;7.812;2023-02-02T11:09:39;101752.03;;;5.36;100.00
78198;BME280;67472;51.554;7.812;2023-02-02T11:12:34;101751.44;;;5.30;100.00
78198;BME280;67472;51.554;7.812;2023-02-02T11:15:28;101774.22;;;5.28;100.00
78198;BME280;67472;51.554;7.812;2023-02-02T11:18:28;101767.47;;;5.42;100.00
78198;BME280;67472;51.554;7.812;2023-02-02T11:21:25;101755.81;;;5.29;100.00
78198;BME280;67472;51.554;7.812;2023-02-02T11:24:29;101761.56;;;5.37;100.00
78198;BME280;67472;51.554;7.812;2023-02-02T11:27:28;101778.59;;;5.47;100.00
78198;BME280;67472;51.554;7.812;2023-02-02T11:30:33;101778.19;;;5.56;100.00
78198;BME280;67472;51.554;7.812;2023-02-02T11:36:20;101766.88;;;5.36;100.00
78198;BME280;67472;51.554;7.812;2023-02-02T11:39:18;101761.56;;;5.37;100.00
78198;BME280;67472;51.554;7.812;2023-02-02T11:44:53;101773.50;;;5.44;100.00
78198;BME280;67472;51.554;7.812;2023-02-02T11:47:39;101771.78;;;5.43;100.00
78198;BME280;67472;51.554;7.812;2023-02-02T11:50:26;101783.53;;;5.74;100.00
78198;BME280;67472;51.554;7.812;2023-02-02T11:53:26;101800.75;;;6.18;100.00
78198;BME280;67472;51.554;7.812;2023-02-02T11:59:04;101808.59;;;5.99;100.00
78198;BME280;67472;51.554;7.812;2023-02-02T12:01:48;101810.84;;;6.07;100.00
78198;BME280;67472;51.554;7.812;2023-02-02T12:04:33;101827.47;;;6.26;100.00
78198;BME280;67472;51.554;7.812;2023-02-02T12:07:28;101839.69;;;6.63;100.00
78198;BME280;67472;51.554;7.812;2023-02-02T12:10:19;101853.25;;;6.72;100.00
78198;BME280;67472;51.554;7.812;2023-02-02T12:25:57;101874.91;;;6.95;100.00
78198;BME280;67472;51.554;7.812;2023-02-02T12:35:01;101887.34;;;7.08;100.00
78198;BME280;67472;51.554;7.812;2023-02-02T12:38:19;101886.59;;;7.06;100.00
78198;BME280;67472;51.554;7.812;2023-02-02T12:56:30;101887.16;;;7.13;100.00
78198;BME280;67472;51.554;7.812;2023-02-02T13:06:14;101871.38;;;7.13;100.00
78198;BME280;67472;51.554;7.812;2023-02-02T13:09:11;101875.03;;;7.10;100.00
78198;BME280;67472;51.554;7.812;2023-02-02T13:12:08;101880.13;;;7.13;100.00
78198;BME280;67472;51.554;7.812;2023-02-02T13:15:00;101880.56;;;7.04;100.00
78198;BME280;67472;51.554;7.812;2023-02-02T13:17:54;101881.44;;;7.05;100.00
78198;BME280;67472;51.554;7.812;2023-02-02T13:20:43;101877.84;;;7.06;100.00
78198;BME280;67472;51.554;7.812;2023-02-02T13:23:33;101880.28;;;7.10;100.00
78198;BME280;67472;51.554;7.812;2023-02-02T13:29:21;101894.13;;;7.14;100.00
78198;BME280;67472;51.554;7.812;2023-02-02T13:32:16;101907.41;;;7.11;100.00
78198;BME280;67472;51.554;7.812;2023-02-02T13:35:24;101898.88;;;7.06;100.00
78198;BME280;67472;51.554;7.812;2023-02-02T13:41:08;101911.81;;;7.10;100.00
78198;BME280;67472;51.554;7.812;2023-02-02T13:44:04;101906.91;;;7.03;100.00
78198;BME280;67472;51.554;7.812;2023-02-02T13:47:49;101914.44;;;7.10;100.00
78198;BME280;67472;51.554;7.812;2023-02-02T13:50:15;101917.13;;;7.09;100.00
78198;BME280;67472;51.554;7.812;2023-02-02T14:06:23;101904.38;;;7.01;100.00
78198;BME280;67472;51.554;7.812;2023-02-02T14:09:16;101912.72;;;7.09;100.00
78198;BME280;67472;51.554;7.812;2023-02-02T14:12:07;101908.22;;;7.11;100.00
78198;BME280;67472;51.554;7.812;2023-02-02T14:14:53;101910.47;;;7.02;100.00
78198;BME280;67472;51.554;7.812;2023-02-02T14:20:43;101915.50;;;7.06;100.00
78198;BME280;67472;51.554;7.812;2023-02-02T14:38:16;101940.69;;;7.10;100.00
78198;BME280;67472;51.554;7.812;2023-02-02T14:41:21;101937.22;;;7.10;100.00
78198;BME280;67472;51.554;7.812;2023-02-02T14:44:27;101950.50;;;7.07;100.00
78198;BME280;67472;51.554;7.812;2023-02-02T14:53:24;101960.88;;;7.10;100.00
78198;BME280;67472;51.554;7.812;2023-02-02T14:56:12;101969.75;;;7.07;100.00
78198;BME280;67472;51.554;7.812;2023-02-02T14:59:02;101978.34;;;7.11;100.00
78198;BME280;67472;51.554;7.812;2023-02-02T15:02:19;101984.78;;;7.22;100.00
78198;BME280;67472;51.554;7.812;2023-02-02T15:08:25;101985.06;;;7.16;100.00
78198;BME280;67472;51.554;7.812;2023-02-02T15:11:10;101987.00;;;7.13;100.00
78198;BME280;67472;51.554;7.812;2023-02-02T15:14:14;101989.47;;;7.16;100.00
78198;BME280;67472;51.554;7.812;2023-02-02T15:26:27;101975.47;;;7.15;100.00
78198;BME280;67472;51.554;7.812;2023-02-02T15:29:21;101969.59;;;7.10;100.00
78198;BME280;67472;51.554;7.812;2023-02-02T15:32:14;101977.72;;;7.23;100.00
78198;BME280;67472;51.554;7.812;2023-02-02T15:35:02;101974.13;;;7.25;100.00
78198;BME280;67472;51.554;7.812;2023-02-02T15:37:55;101978.28;;;7.29;100.00
78198;BME280;67472;51.554;7.812;2023-02-02T15:40:42;101985.00;;;7.18;100.00
78198;BME280;67472;51.554;7.812;2023-02-02T15:43:26;101985.00;;;7.18;100.00
78198;BME280;67472;51.554;7.812;2023-02-02T15:46:15;101989.53;;;7.14;100.00
78198;BME280;67472;51.554;7.812;2023-02-02T15:55:19;101998.69;;;7.24;100.00
78198;BME280;67472;51.554;7.812;2023-02-02T15:58:28;102005.47;;;7.28;100.00
78198;BME280;67472;51.554;7.812;2023-02-02T16:01:15;102008.50;;;7.21;100.00
78198;BME280;67472;51.554;7.812;2023-02-02T16:06:57;102003.53;;;7.15;100.00
78198;BME280;67472;51.554;7.812;2023-02-02T16:09:41;102005.88;;;7.21;100.00
78198;BME280;67472;51.554;7.812;2023-02-02T16:12:26;102008.72;;;7.16;100.00
78198;BME280;67472;51.554;7.812;2023-02-02T16:15:18;102017.59;;;7.14;100.00
78198;BME280;67472;51.554;7.812;2023-02-02T16:18:09;102019.44;;;7.12;100.00
78198;BME280;67472;51.554;7.812;2023-02-02T16:20:58;102021.44;;;7.07;100.00
78198;BME280;67472;51.554;7.812;2023-02-02T16:23:44;102016.19;;;7.07;100.00
78198;BME280;67472;51.554;7.812;2023-02-02T16:26:30;102024.97;;;7.06;100.00
78198;BME280;67472;51.554;7.812;2023-02-02T16:29:15;102027.53;;;7.07;100.00
78198;BME280;67472;51.554;7.812;2023-02-02T16:32:02;102021.44;;;7.07;100.00
78198;BME280;67472;51.554;7.812;2023-02-02T16:34:47;102025.09;;;7.03;100.00
78198;BME280;67472;51.554;7.812;2023-02-02T16:37:34;102026.97;;;7.01;100.00
78198;BME280;67472;51.554;7.812;2023-02-02T16:40:29;102036.19;;;7.09;100.00
78198;BME280;67472;51.554;7.812;2023-02-02T16:43:26;102030.31;;;7.04;100.00
78198;BME280;67472;51.554;7.812;2023-02-02T16:46:12;102032.31;;;6.99;100.00
78198;BME280;67472;51.554;7.812;2023-02-02T16:48:59;102038.47;;;6.98;100.00
78198;BME280;67472;51.554;7.812;2023-02-02T16:51:45;102037.59;;;6.98;100.00
78198;BME280;67472;51.554;7.812;2023-02-02T16:54:30;102054.22;;;6.98;100.00
78198;BME280;67472;51.554;7.812;2023-02-02T16:57:18;102060.63;;;6.93;100.00
78198;BME280;67472;51.554;7.812;2023-02-02T17:00:05;102071.03;;;6.94;100.00
78198;BME280;67472;51.554;7.812;2023-02-02T17:02:54;102082.22;;;6.99;100.00
78198;BME280;67472;51.554;7.812;2023-02-02T17:05:48;102082.34;;;6.96;100.00
78198;BME280;67472;51.554;7.812;2023-02-02T17:08:36;102089.50;;;6.93;100.00
78198;BME280;67472;51.554;7.812;2023-02-02T17:11:24;102091.06;;;6.97;100.00
78198;BME280;67472;51.554;7.812;2023-02-02T17:14:22;102090.38;;;6.93;100.00
78198;BME280;67472;51.554;7.812;2023-02-02T17:17:10;102092.50;;;7.04;100.00
78198;BME280;67472;51.554;7.812;2023-02-02T17:19:55;102091.88;;;6.99;100.00
78198;BME280;67472;51.554;7.812;2023-02-02T17:22:42;102096.91;;;7.03;100.00
78198;BME280;67472;51.554;7.812;2023-02-02T17:25:32;102104.06;;;7.00;100.00
78198;BME280;67472;51.554;7.812;2023-02-02T17:28:20;102109.25;;;7.01;100.00
78198;BME280;67472;51.554;7.812;2023-02-02T17:31:08;102104.78;;;7.03;100.00
78198;BME280;67472;51.554;7.812;2023-02-02T17:33:53;102118.84;;;7.02;100.00